CYBWCYXC

Guest
Details From CYBW - Calgary Springbank
To CYXC - CANADIAN ROCKIES INTL
Flight Number -
Tags decoded
Created
Modified
Stats Distance 128 nm / 237 km
Max Altitude 0 ft / 0 m
Waypoints 6
Social Downloads 1
Likes 0
Share VATSIM

Download

Looking for another format? Having issues loading an existing format? Contact us
Advertisement - Login to hide

Notes

Requested: CYBW GABOL CONER SX XC CYXC

Route

CYBW GABOL CONER SX XC CYXC

ID Type Via Altitude Latitude Longitude Leg Dist Tot Dist Heading (true) Name
O CYBW APT - 0 ft / 0 m 51.11176˚ -114.37654˚ - 0 nm - Calgary Springbank
GABOL FIX - 0 ft / 0 m 50.91700˚ -114.02150˚ 17 nm 17 nm 131° / 131° -
CONER FIX - 0 ft / 0 m 50.16556˚ -115.24944˚ 65 nm 82 nm 227° / 226° -
SX NDB - 0 ft / 0 m 49.95492˚ -115.79233˚ 24 nm 107 nm 239° / 239° SKOOKUM NDB
XC NDB - 0 ft / 0 m 49.68333˚ -115.78333˚ 16 nm 123 nm 179° / 179° CRANBROOK NDB
O CYXC APT - 0 ft / 0 m 49.61212˚ -115.78205˚ 4 nm 127 nm 179° / 179° CANADIAN ROCKIES INTL

Altitude Profile

Advertisement - Login to hide

CYBW

Details ICAO CYBW (YBW)
Name Calgary Springbank
Region Canada
Timezone America/Edmonton (UTC-7.0)
Stats Elevation 3,937 ft / 1,200 m (AMSL)
Location 51.111765° -114.376537°
Runways 2
Magnetic Variation 14.237° E

METAR

CYBW 131500Z AUTO 32008KT 9SM OVC240 M06/M09 A3022 RMK SLP291

Decode

TAF

TAF TAF CYBW 131238Z 1313/1401 31005KT P6SM BKN200 FM131500 31008KT P6SM BKN080 FM131900 31012G22KT P6SM SKC RMK FCST BASED ON AUTO OBS. NXT FCST BY 131800Z

Decode

Departure Runways

ID Width Length Bearing (true) Bearing (mag) Surface Threshold Offset Overrun Length
07 100 ft / 30 m 3,389 ft / 1,033 m 89.99° 75.75° Asphalt 0 ft / 0 m 0 ft / 0 m
16 75 ft / 23 m 3,083 ft / 940 m 180.71° 166.47° Asphalt 0 ft / 0 m 0 ft / 0 m
25 100 ft / 30 m 3,389 ft / 1,033 m 270.01° 255.77° Asphalt 0 ft / 0 m 0 ft / 0 m
34 75 ft / 23 m 3,083 ft / 940 m 0.71° 346.47° Asphalt 0 ft / 0 m 0 ft / 0 m

CYXC

Details ICAO CYXC (YXC)
Name CANADIAN ROCKIES INTL
Region Canada
Timezone America/Edmonton (UTC-7.0)
Stats Elevation 3,084 ft / 940 m (AMSL)
Location 49.612121° -115.782055°
Runways 1
Magnetic Variation 14.455° E

METAR

CYXC 131500Z 32004KT 6SM BR OVC008 M08/M09 A3041 RMK ST8 SLP355

Decode

TAF

TAF CYXC 131238Z 1313/1401 VRB03KT 6SM BR OVC008 TEMPO 1313/1320 3SM BR FM132000 36005KT P6SM OVC015 TEMPO 1320/1401 5SM BR OVC008 RMK NXT FCST BY 131900Z

Decode

Destination Runways

ID Width Length Bearing (true) Bearing (mag) Surface Threshold Offset Overrun Length
16 150 ft / 46 m 8,000 ft / 2,438 m 179.16° 164.70° Asphalt 780 ft / 238 m 0 ft / 0 m
34 150 ft / 46 m 8,000 ft / 2,438 m 359.16° 344.70° Asphalt 0 ft / 0 m 0 ft / 0 m

Approach Navaids

Runway Type Ident Frequency Range Bearing (true) Bearing (mag) Slope Elevation
16 Localiser IXC 110.30 MHz 18 nm / 33 km 179.82° 165.36° - 3,058 ft / 932 m (AMSL)
16 Glidescope IXC 110.30 MHz 10 nm / 19 km 179.16° 164.70° 3.00° 3,015 ft / 919 m (AMSL)

Popular Alternatives